sensor_id;sensor_type;location;lat;lon;timestamp;pressure;altitude;pressure_sealevel;temperature;humidity
77005;BME280;67261;53.132;18.006;2023-07-29T00:00:32;100391.13;;;16.04;77.01
77005;BME280;67261;53.132;18.006;2023-07-29T00:03:19;100391.14;;;16.00;77.05
77005;BME280;67261;53.132;18.006;2023-07-29T00:05:45;100394.45;;;15.96;77.06
77005;BME280;67261;53.132;18.006;2023-07-29T00:08:11;100393.30;;;15.94;77.14
77005;BME280;67261;53.132;18.006;2023-07-29T00:10:38;100392.83;;;15.92;77.16
77005;BME280;67261;53.132;18.006;2023-07-29T00:13:05;100400.64;;;15.90;77.33
77005;BME280;67261;53.132;18.006;2023-07-29T00:15:32;100401.27;;;15.88;77.27
77005;BME280;67261;53.132;18.006;2023-07-29T00:17:58;100403.27;;;15.86;77.33
77005;BME280;67261;53.132;18.006;2023-07-29T00:20:25;100402.31;;;15.84;77.37
77005;BME280;67261;53.132;18.006;2023-07-29T00:22:51;100402.59;;;15.81;77.30
77005;BME280;67261;53.132;18.006;2023-07-29T00:25:21;100402.20;;;15.78;77.45
77005;BME280;67261;53.132;18.006;2023-07-29T00:27:48;100404.31;;;15.75;77.67
77005;BME280;67261;53.132;18.006;2023-07-29T00:30:14;100406.73;;;15.73;77.67
77005;BME280;67261;53.132;18.006;2023-07-29T00:32:42;100404.88;;;15.71;77.77
77005;BME280;67261;53.132;18.006;2023-07-29T00:35:08;100402.86;;;15.68;77.73
77005;BME280;67261;53.132;18.006;2023-07-29T00:37:36;100405.77;;;15.66;77.79
77005;BME280;67261;53.132;18.006;2023-07-29T00:40:23;100408.80;;;15.64;77.89
77005;BME280;67261;53.132;18.006;2023-07-29T00:42:49;100406.17;;;15.60;77.87
77005;BME280;67261;53.132;18.006;2023-07-29T00:45:16;100402.68;;;15.56;77.98
77005;BME280;67261;53.132;18.006;2023-07-29T00:47:44;100405.96;;;15.54;78.15
77005;BME280;67261;53.132;18.006;2023-07-29T00:50:12;100410.27;;;15.51;78.18
77005;BME280;67261;53.132;18.006;2023-07-29T00:52:40;100410.89;;;15.50;78.14
77005;BME280;67261;53.132;18.006;2023-07-29T00:55:06;100411.39;;;15.49;78.16
77005;BME280;67261;53.132;18.006;2023-07-29T00:57:33;100417.92;;;15.47;78.20
77005;BME280;67261;53.132;18.006;2023-07-29T01:00:00;100418.89;;;15.45;78.26
77005;BME280;67261;53.132;18.006;2023-07-29T01:02:27;100420.02;;;15.44;78.29
77005;BME280;67261;53.132;18.006;2023-07-29T01:04:57;100420.40;;;15.42;78.23
77005;BME280;67261;53.132;18.006;2023-07-29T01:07:37;100417.64;;;15.42;78.16
77005;BME280;67261;53.132;18.006;2023-07-29T01:11:01;100415.97;;;15.40;78.35
77005;BME280;67261;53.132;18.006;2023-07-29T01:13:19;100411.78;;;15.36;78.49
77005;BME280;67261;53.132;18.006;2023-07-29T01:16:06;100415.85;;;15.35;78.53
77005;BME280;67261;53.132;18.006;2023-07-29T01:18:36;100409.32;;;15.33;78.58
77005;BME280;67261;53.132;18.006;2023-07-29T01:21:07;100410.16;;;15.30;78.66
77005;BME280;67261;53.132;18.006;2023-07-29T01:23:35;100404.41;;;15.26;78.69
77005;BME280;67261;53.132;18.006;2023-07-29T01:26:02;100404.96;;;15.23;78.70
77005;BME280;67261;53.132;18.006;2023-07-29T01:28:30;100401.23;;;15.22;78.76
77005;BME280;67261;53.132;18.006;2023-07-29T01:31:03;100400.66;;;15.21;78.67
77005;BME280;67261;53.132;18.006;2023-07-29T01:33:59;100400.71;;;15.18;78.78
77005;BME280;67261;53.132;18.006;2023-07-29T01:36:31;100396.52;;;15.14;78.84
77005;BME280;67261;53.132;18.006;2023-07-29T01:39:00;100396.10;;;15.12;78.87
77005;BME280;67261;53.132;18.006;2023-07-29T01:41:28;100390.64;;;15.10;78.69
77005;BME280;67261;53.132;18.006;2023-07-29T01:43:56;100389.59;;;15.07;78.92
77005;BME280;67261;53.132;18.006;2023-07-29T01:46:23;100391.65;;;15.03;78.94
77005;BME280;67261;53.132;18.006;2023-07-29T01:48:49;100395.23;;;15.00;78.93
77005;BME280;67261;53.132;18.006;2023-07-29T01:51:15;100395.21;;;14.98;79.00
77005;BME280;67261;53.132;18.006;2023-07-29T01:53:42;100397.55;;;14.96;78.92
77005;BME280;67261;53.132;18.006;2023-07-29T01:56:08;100398.22;;;14.93;79.12
77005;BME280;67261;53.132;18.006;2023-07-29T01:58:36;100401.27;;;14.92;79.23
77005;BME280;67261;53.132;18.006;2023-07-29T02:01:03;100405.98;;;14.91;79.16
77005;BME280;67261;53.132;18.006;2023-07-29T02:03:31;100408.37;;;14.91;79.17
77005;BME280;67261;53.132;18.006;2023-07-29T02:05:59;100412.41;;;14.88;79.14
77005;BME280;67261;53.132;18.006;2023-07-29T02:08:25;100416.55;;;14.87;79.26
77005;BME280;67261;53.132;18.006;2023-07-29T02:10:52;100418.22;;;14.85;79.22
77005;BME280;67261;53.132;18.006;2023-07-29T02:13:18;100414.14;;;14.85;79.15
77005;BME280;67261;53.132;18.006;2023-07-29T02:15:45;100419.23;;;14.84;79.18
77005;BME280;67261;53.132;18.006;2023-07-29T02:18:11;100412.94;;;14.83;79.04
77005;BME280;67261;53.132;18.006;2023-07-29T02:20:37;100413.95;;;14.82;79.09
77005;BME280;67261;53.132;18.006;2023-07-29T02:23:04;100412.02;;;14.78;78.92
77005;BME280;67261;53.132;18.006;2023-07-29T02:25:30;100413.50;;;14.75;78.95
77005;BME280;67261;53.132;18.006;2023-07-29T02:27:56;100410.45;;;14.75;79.06
77005;BME280;67261;53.132;18.006;2023-07-29T02:30:23;100419.79;;;14.76;78.85
77005;BME280;67261;53.132;18.006;2023-07-29T02:32:49;100420.09;;;14.77;78.75
77005;BME280;67261;53.132;18.006;2023-07-29T02:35:15;100418.17;;;14.73;78.82
77005;BME280;67261;53.132;18.006;2023-07-29T02:37:42;100416.77;;;14.69;78.88
77005;BME280;67261;53.132;18.006;2023-07-29T02:40:08;100417.80;;;14.66;78.96
77005;BME280;67261;53.132;18.006;2023-07-29T02:42:35;100416.80;;;14.63;78.89
77005;BME280;67261;53.132;18.006;2023-07-29T02:45:01;100421.52;;;14.61;78.94
77005;BME280;67261;53.132;18.006;2023-07-29T02:47:28;100419.57;;;14.59;78.96
77005;BME280;67261;53.132;18.006;2023-07-29T02:49:54;100422.77;;;14.59;79.09
77005;BME280;67261;53.132;18.006;2023-07-29T02:52:20;100425.38;;;14.57;79.12
77005;BME280;67261;53.132;18.006;2023-07-29T02:54:46;100426.70;;;14.56;79.14
77005;BME280;67261;53.132;18.006;2023-07-29T02:57:14;100430.11;;;14.56;79.09
77005;BME280;67261;53.132;18.006;2023-07-29T02:59:40;100425.75;;;14.55;79.24
77005;BME280;67261;53.132;18.006;2023-07-29T03:02:06;100431.22;;;14.56;79.19
77005;BME280;67261;53.132;18.006;2023-07-29T03:04:33;100434.61;;;14.57;79.20
77005;BME280;67261;53.132;18.006;2023-07-29T03:06:59;100436.33;;;14.59;79.16
77005;BME280;67261;53.132;18.006;2023-07-29T03:09:26;100437.73;;;14.59;79.13
77005;BME280;67261;53.132;18.006;2023-07-29T03:11:52;100440.81;;;14.59;79.37
77005;BME280;67261;53.132;18.006;2023-07-29T03:14:21;100443.48;;;14.63;79.30
77005;BME280;67261;53.132;18.006;2023-07-29T03:16:47;100442.83;;;14.67;79.22
77005;BME280;67261;53.132;18.006;2023-07-29T03:19:13;100443.38;;;14.71;79.14
77005;BME280;67261;53.132;18.006;2023-07-29T03:21:39;100446.06;;;14.75;78.97
77005;BME280;67261;53.132;18.006;2023-07-29T03:24:05;100444.13;;;14.80;78.83
77005;BME280;67261;53.132;18.006;2023-07-29T03:26:32;100440.27;;;14.86;78.67
77005;BME280;67261;53.132;18.006;2023-07-29T03:28:59;100437.81;;;15.02;78.39
77005;BME280;67261;53.132;18.006;2023-07-29T03:31:25;100439.17;;;15.18;78.08
77005;BME280;67261;53.132;18.006;2023-07-29T03:33:52;100437.13;;;15.58;77.51
77005;BME280;67261;53.132;18.006;2023-07-29T03:36:18;100430.44;;;16.16;76.35
77005;BME280;67261;53.132;18.006;2023-07-29T03:38:45;100428.22;;;16.37;75.71
77005;BME280;67261;53.132;18.006;2023-07-29T03:41:11;100429.66;;;16.44;75.41
77005;BME280;67261;53.132;18.006;2023-07-29T03:43:38;100430.98;;;16.37;75.53
77005;BME280;67261;53.132;18.006;2023-07-29T03:46:04;100431.98;;;16.41;75.34
77005;BME280;67261;53.132;18.006;2023-07-29T03:48:31;100429.58;;;16.52;75.00
77005;BME280;67261;53.132;18.006;2023-07-29T03:50:58;100432.27;;;17.05;74.00
77005;BME280;67261;53.132;18.006;2023-07-29T03:53:24;100437.26;;;17.24;73.30
77005;BME280;67261;53.132;18.006;2023-07-29T03:55:51;100438.10;;;17.38;73.02
77005;BME280;67261;53.132;18.006;2023-07-29T03:58:17;100437.83;;;17.29;72.96
77005;BME280;67261;53.132;18.006;2023-07-29T04:00:43;100436.39;;;17.24;72.69
77005;BME280;67261;53.132;18.006;2023-07-29T04:03:10;100440.55;;;17.20;72.49
77005;BME280;67261;53.132;18.006;2023-07-29T04:05:36;100445.75;;;17.21;72.61
77005;BME280;67261;53.132;18.006;2023-07-29T04:08:03;100448.21;;;17.39;72.31
77005;BME280;67261;53.132;18.006;2023-07-29T04:10:29;100450.61;;;18.02;71.55
77005;BME280;67261;53.132;18.006;2023-07-29T04:12:58;100450.63;;;19.66;68.57
77005;BME280;67261;53.132;18.006;2023-07-29T04:15:25;100449.59;;;21.27;65.68
77005;BME280;67261;53.132;18.006;2023-07-29T04:17:51;100450.04;;;22.57;63.23
77005;BME280;67261;53.132;18.006;2023-07-29T04:20:17;100453.37;;;23.65;61.10
77005;BME280;67261;53.132;18.006;2023-07-29T04:22:44;100455.59;;;24.53;59.52
77005;BME280;67261;53.132;18.006;2023-07-29T04:25:10;100453.23;;;25.13;58.43
77005;BME280;67261;53.132;18.006;2023-07-29T04:27:37;100454.58;;;25.65;57.08
77005;BME280;67261;53.132;18.006;2023-07-29T04:30:05;100451.20;;;26.25;55.61
77005;BME280;67261;53.132;18.006;2023-07-29T04:32:32;100449.14;;;26.78;54.77
77005;BME280;67261;53.132;18.006;2023-07-29T04:34:58;100451.98;;;27.36;53.57
77005;BME280;67261;53.132;18.006;2023-07-29T04:37:24;100454.88;;;28.21;51.74
77005;BME280;67261;53.132;18.006;2023-07-29T04:39:50;100455.70;;;28.98;51.33
77005;BME280;67261;53.132;18.006;2023-07-29T04:42:16;100458.45;;;29.80;48.76
77005;BME280;67261;53.132;18.006;2023-07-29T04:44:43;100459.63;;;30.07;47.89
77005;BME280;67261;53.132;18.006;2023-07-29T04:47:09;100457.55;;;30.18;47.17
77005;BME280;67261;53.132;18.006;2023-07-29T04:49:36;100457.98;;;30.46;46.12
77005;BME280;67261;53.132;18.006;2023-07-29T04:52:03;100461.97;;;31.12;44.76
77005;BME280;67261;53.132;18.006;2023-07-29T04:54:29;100463.80;;;31.92;43.17
77005;BME280;67261;53.132;18.006;2023-07-29T04:56:56;100465.89;;;32.72;42.06
77005;BME280;67261;53.132;18.006;2023-07-29T04:59:22;100465.05;;;33.47;40.70
77005;BME280;67261;53.132;18.006;2023-07-29T05:01:49;100463.77;;;34.43;38.82
77005;BME280;67261;53.132;18.006;2023-07-29T05:04:16;100463.89;;;35.26;37.35
77005;BME280;67261;53.132;18.006;2023-07-29T05:06:42;100467.66;;;36.11;35.80
77005;BME280;67261;53.132;18.006;2023-07-29T05:09:15;100469.77;;;36.72;34.12
77005;BME280;67261;53.132;18.006;2023-07-29T05:11:43;100473.45;;;37.03;32.85
77005;BME280;67261;53.132;18.006;2023-07-29T05:14:13;100467.47;;;37.17;31.88
77005;BME280;67261;53.132;18.006;2023-07-29T05:16:40;100460.95;;;37.85;30.83
77005;BME280;67261;53.132;18.006;2023-07-29T05:19:06;100464.52;;;38.33;29.71
77005;BME280;67261;53.132;18.006;2023-07-29T05:21:33;100462.64;;;38.74;28.77
77005;BME280;67261;53.132;18.006;2023-07-29T05:23:59;100460.50;;;39.17;27.84
77005;BME280;67261;53.132;18.006;2023-07-29T05:26:25;100458.25;;;39.42;27.02
77005;BME280;67261;53.132;18.006;2023-07-29T05:28:52;100461.02;;;39.75;26.46
77005;BME280;67261;53.132;18.006;2023-07-29T05:31:18;100461.97;;;40.08;25.29
77005;BME280;67261;53.132;18.006;2023-07-29T05:33:45;100456.38;;;40.24;25.07
77005;BME280;67261;53.132;18.006;2023-07-29T05:36:11;100457.65;;;40.53;24.78
77005;BME280;67261;53.132;18.006;2023-07-29T05:38:38;100454.91;;;40.92;24.04
77005;BME280;67261;53.132;18.006;2023-07-29T05:41:04;100457.05;;;40.95;23.92
77005;BME280;67261;53.132;18.006;2023-07-29T05:43:30;100458.35;;;41.09;23.41
77005;BME280;67261;53.132;18.006;2023-07-29T05:45:56;100462.27;;;41.28;22.83
77005;BME280;67261;53.132;18.006;2023-07-29T05:48:22;100461.95;;;41.25;22.78
77005;BME280;67261;53.132;18.006;2023-07-29T05:50:50;100459.44;;;41.49;22.52
77005;BME280;67261;53.132;18.006;2023-07-29T05:53:17;100458.42;;;41.70;22.18
77005;BME280;67261;53.132;18.006;2023-07-29T05:55:43;100459.56;;;41.83;21.96
77005;BME280;67261;53.132;18.006;2023-07-29T05:58:09;100454.96;;;41.93;21.66
77005;BME280;67261;53.132;18.006;2023-07-29T06:00:35;100457.19;;;42.05;21.55
77005;BME280;67261;53.132;18.006;2023-07-29T06:03:02;100454.20;;;42.09;21.40
77005;BME280;67261;53.132;18.006;2023-07-29T06:05:28;100454.42;;;42.24;21.26
77005;BME280;67261;53.132;18.006;2023-07-29T06:07:55;100452.09;;;42.48;21.10
77005;BME280;67261;53.132;18.006;2023-07-29T06:10:21;100458.02;;;42.69;20.66
77005;BME280;67261;53.132;18.006;2023-07-29T06:12:49;100464.49;;;42.91;20.66
77005;BME280;67261;53.132;18.006;2023-07-29T06:15:15;100458.73;;;43.18;20.30
77005;BME280;67261;53.132;18.006;2023-07-29T06:17:42;100457.78;;;43.11;20.13
77005;BME280;67261;53.132;18.006;2023-07-29T06:20:09;100460.95;;;43.00;20.30
77005;BME280;67261;53.132;18.006;2023-07-29T06:22:35;100455.88;;;42.98;20.07
77005;BME280;67261;53.132;18.006;2023-07-29T06:25:01;100458.02;;;43.05;20.08
77005;BME280;67261;53.132;18.006;2023-07-29T06:27:28;100454.79;;;43.00;20.21
77005;BME280;67261;53.132;18.006;2023-07-29T06:29:55;100449.98;;;43.08;20.45
77005;BME280;67261;53.132;18.006;2023-07-29T06:32:22;100455.57;;;43.45;20.23
77005;BME280;67261;53.132;18.006;2023-07-29T06:34:48;100453.77;;;43.91;19.72
77005;BME280;67261;53.132;18.006;2023-07-29T06:37:14;100454.83;;;44.17;19.64
77005;BME280;67261;53.132;18.006;2023-07-29T06:39:41;100453.08;;;44.27;19.14
77005;BME280;67261;53.132;18.006;2023-07-29T06:42:07;100450.08;;;44.31;19.13
77005;BME280;67261;53.132;18.006;2023-07-29T06:44:34;100451.56;;;44.30;18.83
77005;BME280;67261;53.132;18.006;2023-07-29T06:47:00;100452.31;;;43.76;18.89
77005;BME280;67261;53.132;18.006;2023-07-29T06:49:26;100456.94;;;42.99;19.23
77005;BME280;67261;53.132;18.006;2023-07-29T06:51:53;100456.55;;;42.62;19.82
77005;BME280;67261;53.132;18.006;2023-07-29T06:54:24;100463.84;;;42.78;20.05
77005;BME280;67261;53.132;18.006;2023-07-29T06:56:50;100460.34;;;42.97;19.88
77005;BME280;67261;53.132;18.006;2023-07-29T06:59:16;100457.28;;;43.01;20.10
77005;BME280;67261;53.132;18.006;2023-07-29T07:01:43;100453.05;;;42.95;20.07
77005;BME280;67261;53.132;18.006;2023-07-29T07:04:09;100449.00;;;42.80;20.29
77005;BME280;67261;53.132;18.006;2023-07-29T07:06:35;100446.96;;;43.03;20.32
77005;BME280;67261;53.132;18.006;2023-07-29T07:09:02;100438.92;;;43.31;20.01
77005;BME280;67261;53.132;18.006;2023-07-29T07:11:28;100435.27;;;43.32;20.05
77005;BME280;67261;53.132;18.006;2023-07-29T07:13:54;100434.24;;;43.20;20.05
77005;BME280;67261;53.132;18.006;2023-07-29T07:16:20;100432.98;;;43.15;19.67
77005;BME280;67261;53.132;18.006;2023-07-29T07:18:47;100432.02;;;42.98;19.42
77005;BME280;67261;53.132;18.006;2023-07-29T07:21:13;100434.71;;;42.85;19.91
77005;BME280;67261;53.132;18.006;2023-07-29T07:23:40;100440.19;;;43.00;19.91
77005;BME280;67261;53.132;18.006;2023-07-29T07:26:06;100434.21;;;43.17;19.94
77005;BME280;67261;53.132;18.006;2023-07-29T07:28:33;100438.13;;;43.11;19.86
77005;BME280;67261;53.132;18.006;2023-07-29T07:31:00;100438.94;;;42.90;19.88
77005;BME280;67261;53.132;18.006;2023-07-29T07:33:26;100434.61;;;42.89;20.00
77005;BME280;67261;53.132;18.006;2023-07-29T07:35:53;100429.55;;;42.98;20.02
77005;BME280;67261;53.132;18.006;2023-07-29T07:38:19;100432.60;;;43.00;19.74
77005;BME280;67261;53.132;18.006;2023-07-29T07:40:55;100429.02;;;42.56;19.68
77005;BME280;67261;53.132;18.006;2023-07-29T07:43:23;100426.26;;;42.27;20.20
77005;BME280;67261;53.132;18.006;2023-07-29T07:45:49;100421.66;;;42.24;19.97
77005;BME280;67261;53.132;18.006;2023-07-29T07:48:16;100422.94;;;42.12;20.05
77005;BME280;67261;53.132;18.006;2023-07-29T07:50:43;100424.81;;;41.96;20.29
77005;BME280;67261;53.132;18.006;2023-07-29T07:53:09;100419.96;;;41.42;20.48
77005;BME280;67261;53.132;18.006;2023-07-29T07:55:36;100419.41;;;40.80;20.87
77005;BME280;67261;53.132;18.006;2023-07-29T07:58:02;100415.41;;;40.26;21.28
77005;BME280;67261;53.132;18.006;2023-07-29T08:00:28;100411.48;;;39.93;21.98
77005;BME280;67261;53.132;18.006;2023-07-29T08:02:55;100416.35;;;39.83;22.37
77005;BME280;67261;53.132;18.006;2023-07-29T08:05:21;100411.16;;;39.79;22.18
77005;BME280;67261;53.132;18.006;2023-07-29T08:07:47;100410.77;;;39.65;22.38
77005;BME280;67261;53.132;18.006;2023-07-29T08:10:14;100409.85;;;39.40;22.61
77005;BME280;67261;53.132;18.006;2023-07-29T08:12:41;100407.04;;;38.96;22.98
77005;BME280;67261;53.132;18.006;2023-07-29T08:15:07;100405.86;;;38.44;23.42
77005;BME280;67261;53.132;18.006;2023-07-29T08:17:34;100405.98;;;37.87;23.97
77005;BME280;67261;53.132;18.006;2023-07-29T08:20:00;100403.52;;;37.42;24.23
77005;BME280;67261;53.132;18.006;2023-07-29T08:22:26;100404.63;;;36.94;25.00
77005;BME280;67261;53.132;18.006;2023-07-29T08:24:52;100404.52;;;36.58;25.39
77005;BME280;67261;53.132;18.006;2023-07-29T08:27:22;100403.98;;;36.21;25.82
77005;BME280;67261;53.132;18.006;2023-07-29T08:29:48;100395.52;;;36.03;26.21
77005;BME280;67261;53.132;18.006;2023-07-29T08:32:15;100392.71;;;35.66;26.12
77005;BME280;67261;53.132;18.006;2023-07-29T08:34:43;100390.79;;;35.18;26.75
77005;BME280;67261;53.132;18.006;2023-07-29T08:37:09;100389.44;;;34.96;26.81
77005;BME280;67261;53.132;18.006;2023-07-29T08:39:35;100387.44;;;34.75;27.18
77005;BME280;67261;53.132;18.006;2023-07-29T08:42:04;100382.18;;;34.34;27.34
77005;BME280;67261;53.132;18.006;2023-07-29T08:44:42;100383.00;;;33.93;28.32
77005;BME280;67261;53.132;18.006;2023-07-29T08:47:09;100376.66;;;33.71;28.36
77005;BME280;67261;53.132;18.006;2023-07-29T08:49:36;100374.55;;;33.47;28.62
77005;BME280;67261;53.132;18.006;2023-07-29T08:52:04;100379.19;;;33.29;29.16
77005;BME280;67261;53.132;18.006;2023-07-29T08:54:30;100379.14;;;33.15;28.72
77005;BME280;67261;53.132;18.006;2023-07-29T08:56:57;100378.11;;;32.92;28.87
77005;BME280;67261;53.132;18.006;2023-07-29T08:59:25;100380.03;;;32.63;29.69
77005;BME280;67261;53.132;18.006;2023-07-29T09:01:53;100381.83;;;32.21;30.22
77005;BME280;67261;53.132;18.006;2023-07-29T09:04:24;100376.89;;;32.06;30.52
77005;BME280;67261;53.132;18.006;2023-07-29T09:06:51;100376.91;;;32.02;30.59
77005;BME280;67261;53.132;18.006;2023-07-29T09:09:17;100378.41;;;31.84;30.91
77005;BME280;67261;53.132;18.006;2023-07-29T09:11:44;100378.00;;;31.77;31.60
77005;BME280;67261;53.132;18.006;2023-07-29T09:14:10;100371.85;;;31.80;31.79
77005;BME280;67261;53.132;18.006;2023-07-29T09:16:36;100372.36;;;31.76;31.91
77005;BME280;67261;53.132;18.006;2023-07-29T09:19:03;100372.48;;;31.67;32.15
77005;BME280;67261;53.132;18.006;2023-07-29T09:21:31;100368.83;;;31.68;32.56
77005;BME280;67261;53.132;18.006;2023-07-29T09:24:02;100370.04;;;31.73;32.70
77005;BME280;67261;53.132;18.006;2023-07-29T09:26:29;100372.66;;;31.80;32.70
77005;BME280;67261;53.132;18.006;2023-07-29T09:28:57;100366.79;;;31.86;32.70
77005;BME280;67261;53.132;18.006;2023-07-29T09:31:25;100369.45;;;31.69;32.62
77005;BME280;67261;53.132;18.006;2023-07-29T09:33:59;100369.65;;;31.58;32.33
77005;BME280;67261;53.132;18.006;2023-07-29T09:36:27;100365.41;;;31.52;32.42
77005;BME280;67261;53.132;18.006;2023-07-29T09:38:56;100361.27;;;31.50;33.08
77005;BME280;67261;53.132;18.006;2023-07-29T09:41:25;100359.44;;;31.56;33.09
77005;BME280;67261;53.132;18.006;2023-07-29T09:44:02;100358.77;;;31.52;32.78
77005;BME280;67261;53.132;18.006;2023-07-29T09:46:37;100358.04;;;31.40;32.57
77005;BME280;67261;53.132;18.006;2023-07-29T09:49:04;100357.32;;;31.28;33.06
77005;BME280;67261;53.132;18.006;2023-07-29T09:51:31;100358.71;;;31.16;33.14
77005;BME280;67261;53.132;18.006;2023-07-29T09:54:02;100355.98;;;30.93;33.37
77005;BME280;67261;53.132;18.006;2023-07-29T09:56:30;100347.14;;;30.55;33.61
77005;BME280;67261;53.132;18.006;2023-07-29T09:58:58;100349.85;;;30.31;34.03
77005;BME280;67261;53.132;18.006;2023-07-29T10:01:25;100350.52;;;30.38;34.62
77005;BME280;67261;53.132;18.006;2023-07-29T10:03:52;100344.31;;;30.50;34.42
77005;BME280;67261;53.132;18.006;2023-07-29T10:06:19;100336.51;;;30.59;34.24
77005;BME280;67261;53.132;18.006;2023-07-29T10:08:47;100333.95;;;30.62;34.50
77005;BME280;67261;53.132;18.006;2023-07-29T10:11:14;100334.81;;;30.56;34.47
77005;BME280;67261;53.132;18.006;2023-07-29T10:13:43;100329.06;;;30.47;34.17
77005;BME280;67261;53.132;18.006;2023-07-29T10:16:10;100334.95;;;30.35;34.42
77005;BME280;67261;53.132;18.006;2023-07-29T10:18:40;100333.81;;;30.30;34.45
77005;BME280;67261;53.132;18.006;2023-07-29T10:21:07;100328.73;;;30.16;34.50
77005;BME280;67261;53.132;18.006;2023-07-29T10:23:38;100332.30;;;30.05;34.82
77005;BME280;67261;53.132;18.006;2023-07-29T10:26:11;100329.70;;;29.95;35.16
77005;BME280;67261;53.132;18.006;2023-07-29T10:28:41;100330.70;;;29.99;35.63
77005;BME280;67261;53.132;18.006;2023-07-29T10:31:12;100332.60;;;30.04;35.67
77005;BME280;67261;53.132;18.006;2023-07-29T10:33:39;100324.89;;;30.08;35.47
77005;BME280;67261;53.132;18.006;2023-07-29T10:36:06;100325.48;;;30.00;35.43
77005;BME280;67261;53.132;18.006;2023-07-29T10:38:32;100323.80;;;29.89;35.34
77005;BME280;67261;53.132;18.006;2023-07-29T10:40:59;100324.79;;;29.88;35.76
77005;BME280;67261;53.132;18.006;2023-07-29T10:43:36;100322.50;;;30.06;35.95
77005;BME280;67261;53.132;18.006;2023-07-29T10:46:23;100318.36;;;30.17;35.64
77005;BME280;67261;53.132;18.006;2023-07-29T10:54:03;100310.91;;;30.63;35.24
77005;BME280;67261;53.132;18.006;2023-07-29T10:56:34;100309.67;;;30.83;35.34
77005;BME280;67261;53.132;18.006;2023-07-29T11:01:51;100298.59;;;30.95;35.35
77005;BME280;67261;53.132;18.006;2023-07-29T11:17:38;100270.13;;;30.58;35.25
77005;BME280;67261;53.132;18.006;2023-07-29T11:20:07;100271.19;;;30.45;34.85
77005;BME280;67261;53.132;18.006;2023-07-29T11:22:35;100268.09;;;30.34;35.10
77005;BME280;67261;53.132;18.006;2023-07-29T11:25:03;100259.46;;;30.24;35.89
77005;BME280;67261;53.132;18.006;2023-07-29T11:27:29;100260.36;;;30.14;35.59
77005;BME280;67261;53.132;18.006;2023-07-29T11:29:57;100266.55;;;29.92;35.47
77005;BME280;67261;53.132;18.006;2023-07-29T11:32:24;100264.70;;;29.88;35.30
77005;BME280;67261;53.132;18.006;2023-07-29T11:34:51;100260.05;;;29.91;35.60
77005;BME280;67261;53.132;18.006;2023-07-29T11:37:19;100257.90;;;30.02;35.90
77005;BME280;67261;53.132;18.006;2023-07-29T11:39:47;100254.39;;;30.10;36.25
77005;BME280;67261;53.132;18.006;2023-07-29T11:42:14;100246.35;;;30.10;36.24
77005;BME280;67261;53.132;18.006;2023-07-29T11:44:41;100236.65;;;30.03;36.16
77005;BME280;67261;53.132;18.006;2023-07-29T11:47:09;100233.05;;;30.00;36.18
77005;BME280;67261;53.132;18.006;2023-07-29T11:49:39;100234.48;;;29.96;36.70
77005;BME280;67261;53.132;18.006;2023-07-29T11:52:08;100241.27;;;29.93;36.72
77005;BME280;67261;53.132;18.006;2023-07-29T11:54:38;100242.20;;;29.91;36.84
77005;BME280;67261;53.132;18.006;2023-07-29T11:57:09;100236.68;;;29.81;37.02
77005;BME280;67261;53.132;18.006;2023-07-29T11:59:37;100234.97;;;29.69;37.11
77005;BME280;67261;53.132;18.006;2023-07-29T12:02:08;100229.68;;;29.71;36.74
77005;BME280;67261;53.132;18.006;2023-07-29T12:04:36;100226.82;;;29.64;37.13
77005;BME280;67261;53.132;18.006;2023-07-29T12:07:03;100225.62;;;29.48;37.63
77005;BME280;67261;53.132;18.006;2023-07-29T12:09:30;100217.48;;;29.52;37.86
77005;BME280;67261;53.132;18.006;2023-07-29T12:11:56;100214.98;;;29.63;37.96
77005;BME280;67261;53.132;18.006;2023-07-29T12:14:26;100208.77;;;29.67;37.70
77005;BME280;67261;53.132;18.006;2023-07-29T12:16:54;100203.31;;;29.75;37.87
77005;BME280;67261;53.132;18.006;2023-07-29T12:19:21;100200.42;;;29.74;37.95
77005;BME280;67261;53.132;18.006;2023-07-29T12:21:51;100200.59;;;29.65;37.95
77005;BME280;67261;53.132;18.006;2023-07-29T12:24:17;100196.66;;;29.59;37.87
77005;BME280;67261;53.132;18.006;2023-07-29T12:26:44;100197.70;;;29.55;37.57
77005;BME280;67261;53.132;18.006;2023-07-29T12:29:14;100193.36;;;29.53;37.93
77005;BME280;67261;53.132;18.006;2023-07-29T12:31:42;100187.52;;;29.43;37.81
77005;BME280;67261;53.132;18.006;2023-07-29T12:34:08;100181.48;;;29.35;37.97
77005;BME280;67261;53.132;18.006;2023-07-29T12:36:48;100176.16;;;29.35;38.11
77005;BME280;67261;53.132;18.006;2023-07-29T12:39:24;100168.23;;;29.41;38.52
77005;BME280;67261;53.132;18.006;2023-07-29T12:41:53;100163.67;;;29.52;38.45
77005;BME280;67261;53.132;18.006;2023-07-29T12:44:22;100165.30;;;29.60;38.21
77005;BME280;67261;53.132;18.006;2023-07-29T12:46:49;100158.39;;;29.62;38.22
77005;BME280;67261;53.132;18.006;2023-07-29T12:49:15;100160.35;;;29.66;38.33
77005;BME280;67261;53.132;18.006;2023-07-29T12:51:42;100162.14;;;29.69;38.42
77005;BME280;67261;53.132;18.006;2023-07-29T12:54:09;100159.44;;;29.73;38.57
77005;BME280;67261;53.132;18.006;2023-07-29T12:56:35;100153.66;;;29.80;38.31
77005;BME280;67261;53.132;18.006;2023-07-29T12:59:02;100152.40;;;29.87;38.07
77005;BME280;67261;53.132;18.006;2023-07-29T13:01:29;100153.02;;;29.96;37.77
77005;BME280;67261;53.132;18.006;2023-07-29T13:03:56;100150.80;;;30.07;37.78